Time;durP1;ratioP1;P1;durP2;ratioP2;P2;SDS_P1;SDS_P2;PMS_P1;PMS_P2;Temp;Humidity;BMP_temperature;BMP_pressure;BME280_temperature;BME280_humidity;BME280_pressure;Samples;Min_cycle;Max_cycle;Signal;HPM_P1;HPM_P2
2022/10/13 00:01:32;;;;;;;15.13;7.75;;;;;;;;;;5074945;28;20486;-67
2022/10/13 00:04:36;;;;;;;10.73;7.40;;;;;;;;;;5074711;28;20058;-67
2022/10/13 00:07:03;;;;;;;13.00;7.20;;;;;;;;;;5074571;28;20105;-67
2022/10/13 00:09:38;;;;;;;9.25;7.30;;;;;;;;;;5056899;28;20123;-67
2022/10/13 00:12:06;;;;;;;13.95;7.25;;;;;;;;;;5074647;28;20040;-67
2022/10/13 00:14:33;;;;;;;13.10;7.30;;;;;;;;;;5074751;28;20390;-67
2022/10/13 00:17:01;;;;;;;14.00;7.25;;;;;;;;;;5056280;28;20052;-67
2022/10/13 00:19:30;;;;;;;9.90;7.38;;;;;;;;;;5074311;28;20051;-67
2022/10/13 00:21:57;;;;;;;15.00;7.85;;;;;;;;;;5074385;28;20449;-67
2022/10/13 00:24:25;;;;;;;11.77;7.22;;;;;;;;;;5074444;28;20049;-67
2022/10/13 00:26:52;;;;;;;12.73;7.13;;;;;;;;;;5074213;28;20032;-67
2022/10/13 00:29:20;;;;;;;18.88;7.57;;;;;;;;;;5056171;28;20094;-67
2022/10/13 00:31:47;;;;;;;14.45;7.38;;;;;;;;;;5074095;28;20553;-67
2022/10/13 00:34:14;;;;;;;9.02;6.75;;;;;;;;;;5074084;28;20040;-67
2022/10/13 00:36:42;;;;;;;13.02;7.30;;;;;;;;;;5074034;28;20072;-67
2022/10/13 00:39:09;;;;;;;12.30;7.30;;;;;;;;;;5074135;28;20047;-67
2022/10/13 00:41:37;;;;;;;12.00;7.03;;;;;;;;;;5073942;28;20117;-67
2022/10/13 00:44:06;;;;;;;11.75;7.20;;;;;;;;;;5073951;28;20119;-67
2022/10/13 00:46:34;;;;;;;12.77;7.88;;;;;;;;;;5073768;28;20045;-67
2022/10/13 00:49:05;;;;;;;14.65;7.43;;;;;;;;;;5073989;28;20437;-67
2022/10/13 00:51:34;;;;;;;11.57;6.68;;;;;;;;;;5073708;28;20505;-67
2022/10/13 00:54:03;;;;;;;13.30;7.28;;;;;;;;;;5073919;28;20051;-67
2022/10/13 00:56:31;;;;;;;12.95;7.28;;;;;;;;;;5073637;28;20064;-67
2022/10/13 00:59:00;;;;;;;10.90;6.88;;;;;;;;;;5073454;28;20071;-67
2022/10/13 01:01:27;;;;;;;13.18;7.15;;;;;;;;;;5073535;28;20075;-67
2022/10/13 01:03:55;;;;;;;12.88;7.25;;;;;;;;;;5073432;28;20516;-67
2022/10/13 01:06:22;;;;;;;15.48;8.20;;;;;;;;;;5073344;28;20041;-67
2022/10/13 01:08:50;;;;;;;15.93;8.27;;;;;;;;;;5073318;28;20123;-67
2022/10/13 01:11:24;;;;;;;11.85;7.88;;;;;;;;;;5072541;28;20094;-67
2022/10/13 01:13:57;;;;;;;12.43;8.45;;;;;;;;;;5073316;28;20098;-67
2022/10/13 01:16:27;;;;;;;13.05;8.25;;;;;;;;;;5073248;28;20048;-67
2022/10/13 01:19:01;;;;;;;13.07;7.55;;;;;;;;;;5072980;28;20045;-67
2022/10/13 01:21:28;;;;;;;14.10;7.85;;;;;;;;;;5055785;28;20056;-67
2022/10/13 01:24:02;;;;;;;15.13;8.10;;;;;;;;;;5073071;28;20115;-67
2022/10/13 01:26:29;;;;;;;14.80;8.70;;;;;;;;;;5073071;28;20048;-67
2022/10/13 01:29:05;;;;;;;13.88;8.20;;;;;;;;;;5072956;28;20071;-67
2022/10/13 01:31:35;;;;;;;11.30;8.52;;;;;;;;;;5072928;28;20046;-67
2022/10/13 01:34:15;;;;;;;17.13;8.13;;;;;;;;;;5072937;28;20143;-67
2022/10/13 01:36:52;;;;;;;16.92;8.10;;;;;;;;;;5072944;28;20059;-67
2022/10/13 01:39:42;;;;;;;14.05;7.80;;;;;;;;;;5072921;28;20086;-67
2022/10/13 01:42:34;;;;;;;13.80;8.00;;;;;;;;;;5055289;28;20124;-67
2022/10/13 01:45:04;;;;;;;12.20;7.82;;;;;;;;;;5072817;28;20056;-67
2022/10/13 01:47:33;;;;;;;14.57;8.20;;;;;;;;;;5072820;28;20051;-67
2022/10/13 01:50:01;;;;;;;14.68;7.88;;;;;;;;;;5072687;28;20092;-67
2022/10/13 01:52:32;;;;;;;18.73;7.95;;;;;;;;;;5072743;28;20044;-67
2022/10/13 01:55:04;;;;;;;16.83;8.90;;;;;;;;;;5072993;28;20052;-67
2022/10/13 01:57:36;;;;;;;15.65;8.18;;;;;;;;;;5054697;28;20098;-67
2022/10/13 02:00:06;;;;;;;17.75;8.95;;;;;;;;;;5072624;28;20041;-67
2022/10/13 02:02:55;;;;;;;18.08;8.20;;;;;;;;;;5072893;28;20446;-67
2022/10/13 02:05:22;;;;;;;15.82;8.80;;;;;;;;;;5072550;28;20045;-67
2022/10/13 02:07:54;;;;;;;15.95;8.57;;;;;;;;;;5054869;28;20485;-67
2022/10/13 02:10:38;;;;;;;15.38;8.73;;;;;;;;;;5072453;28;20044;-67
2022/10/13 02:13:06;;;;;;;16.10;9.13;;;;;;;;;;5072715;28;20433;-67
2022/10/13 02:15:39;;;;;;;15.10;8.40;;;;;;;;;;5072478;28;20123;-67
2022/10/13 02:18:09;;;;;;;14.95;9.00;;;;;;;;;;5072159;28;20064;-67
2022/10/13 02:20:36;;;;;;;18.55;10.10;;;;;;;;;;5072381;28;20074;-67
2022/10/13 02:23:06;;;;;;;20.65;10.23;;;;;;;;;;5075408;28;20068;-67
2022/10/13 02:25:35;;;;;;;16.23;9.52;;;;;;;;;;5076438;28;20075;-67
2022/10/13 02:28:03;;;;;;;16.23;10.07;;;;;;;;;;5076446;28;20032;-67
2022/10/13 02:30:34;;;;;;;19.70;10.82;;;;;;;;;;5076297;28;20040;-67
2022/10/13 02:33:03;;;;;;;20.50;11.23;;;;;;;;;;5076350;28;20483;-66
2022/10/13 02:35:31;;;;;;;22.58;11.10;;;;;;;;;;5076323;28;20123;-66
2022/10/13 02:38:00;;;;;;;25.98;11.20;;;;;;;;;;5076253;28;20532;-66
2022/10/13 02:40:28;;;;;;;19.92;10.82;;;;;;;;;;5076213;28;20119;-67
2022/10/13 02:42:55;;;;;;;20.13;12.05;;;;;;;;;;5058524;28;20064;-66
2022/10/13 02:45:23;;;;;;;20.00;11.32;;;;;;;;;;5076131;28;20555;-66
2022/10/13 02:47:52;;;;;;;20.15;12.05;;;;;;;;;;5076168;28;20033;-66
2022/10/13 02:50:20;;;;;;;25.17;12.30;;;;;;;;;;5075999;28;20432;-66
2022/10/13 02:52:49;;;;;;;23.35;12.75;;;;;;;;;;5075993;28;20094;-66
2022/10/13 02:55:17;;;;;;;23.75;13.20;;;;;;;;;;5076065;28;20478;-66
2022/10/13 02:57:45;;;;;;;19.52;12.57;;;;;;;;;;5075954;28;20041;-66
2022/10/13 03:00:13;;;;;;;19.15;12.38;;;;;;;;;;5075922;28;20482;-67
2022/10/13 03:02:41;;;;;;;23.90;14.48;;;;;;;;;;5075819;28;20486;-66
2022/10/13 03:05:09;;;;;;;26.08;14.23;;;;;;;;;;5075809;28;20048;-66
2022/10/13 03:07:36;;;;;;;27.77;13.85;;;;;;;;;;5075678;28;20033;-66
2022/10/13 03:10:04;;;;;;;25.58;14.70;;;;;;;;;;5075423;28;20075;-66
2022/10/13 03:12:31;;;;;;;24.80;15.35;;;;;;;;;;5075584;28;20050;-66
2022/10/13 03:14:59;;;;;;;24.45;16.98;;;;;;;;;;5075585;28;20116;-66
2022/10/13 03:17:27;;;;;;;28.55;16.67;;;;;;;;;;5075459;28;20059;-66
2022/10/13 03:19:55;;;;;;;26.38;16.40;;;;;;;;;;5075713;28;20131;-67
2022/10/13 03:22:22;;;;;;;26.88;16.45;;;;;;;;;;5075666;28;20048;-66
2022/10/13 03:24:51;;;;;;;25.38;15.93;;;;;;;;;;5075294;28;20036;-66
2022/10/13 03:27:19;;;;;;;27.17;16.27;;;;;;;;;;5075410;28;20448;-66
2022/10/13 03:29:47;;;;;;;25.92;17.10;;;;;;;;;;5075254;28;20067;-66
2022/10/13 03:32:15;;;;;;;23.92;16.55;;;;;;;;;;5075139;28;20051;-67
2022/10/13 03:34:42;;;;;;;28.15;18.10;;;;;;;;;;5074436;28;20041;-66
2022/10/13 03:37:10;;;;;;;29.95;17.60;;;;;;;;;;5075356;28;20070;-66
2022/10/13 03:39:40;;;;;;;29.88;18.10;;;;;;;;;;5075145;28;20040;-66
2022/10/13 03:42:10;;;;;;;26.08;16.88;;;;;;;;;;5075041;28;20553;-66
2022/10/13 03:44:38;;;;;;;34.63;17.42;;;;;;;;;;5075016;28;20498;-66
2022/10/13 03:47:06;;;;;;;24.45;16.92;;;;;;;;;;5075318;28;20509;-66
2022/10/13 03:49:34;;;;;;;23.88;15.85;;;;;;;;;;5074561;28;20115;-67
2022/10/13 03:52:01;;;;;;;22.95;15.60;;;;;;;;;;5074809;28;20094;-67
2022/10/13 03:54:28;;;;;;;27.58;15.73;;;;;;;;;;5074791;28;20115;-67
2022/10/13 03:56:56;;;;;;;28.40;16.73;;;;;;;;;;5056852;28;20056;-67
2022/10/13 03:59:24;;;;;;;28.13;16.48;;;;;;;;;;5074644;28;20457;-67
2022/10/13 04:01:51;;;;;;;28.13;16.73;;;;;;;;;;5074465;28;20036;-67
2022/10/13 04:04:19;;;;;;;22.33;15.20;;;;;;;;;;5074549;28;20036;-67
2022/10/13 04:06:48;;;;;;;32.95;15.70;;;;;;;;;;5074558;28;20154;-67
2022/10/13 04:09:15;;;;;;;25.92;17.33;;;;;;;;;;5074555;28;20115;-67
2022/10/13 04:11:43;;;;;;;31.75;18.52;;;;;;;;;;5074463;28;20071;-67
2022/10/13 04:14:10;;;;;;;26.08;16.17;;;;;;;;;;5074496;28;20041;-67
2022/10/13 04:16:39;;;;;;;29.23;17.77;;;;;;;;;;5074432;28;20048;-67
2022/10/13 04:19:06;;;;;;;26.00;15.43;;;;;;;;;;5073912;28;20060;-67
2022/10/13 04:21:34;;;;;;;27.45;16.15;;;;;;;;;;5074342;28;20577;-67
2022/10/13 04:24:02;;;;;;;23.50;15.07;;;;;;;;;;5074206;28;20040;-67
2022/10/13 04:26:31;;;;;;;26.92;15.05;;;;;;;;;;5056615;28;20124;-67
2022/10/13 04:29:05;;;;;;;25.17;14.88;;;;;;;;;;5074177;28;20045;-67
2022/10/13 04:31:34;;;;;;;28.00;14.80;;;;;;;;;;5074311;28;20048;-67
2022/10/13 04:34:01;;;;;;;24.45;14.65;;;;;;;;;;5074187;28;20064;-67
2022/10/13 04:36:28;;;;;;;22.98;13.60;;;;;;;;;;5056214;28;20083;-67
2022/10/13 04:38:56;;;;;;;23.58;14.20;;;;;;;;;;5072354;28;20047;-67
2022/10/13 04:41:24;;;;;;;24.27;14.05;;;;;;;;;;5072105;28;20051;-67
2022/10/13 04:43:52;;;;;;;25.55;14.57;;;;;;;;;;5072004;28;20040;-67
2022/10/13 04:46:24;;;;;;;28.05;14.52;;;;;;;;;;5070823;28;20037;-66
2022/10/13 04:48:54;;;;;;;22.58;13.98;;;;;;;;;;5072070;28;20094;-66
2022/10/13 04:51:28;;;;;;;28.30;13.75;;;;;;;;;;5071810;28;20509;-67
2022/10/13 04:53:57;;;;;;;24.48;16.10;;;;;;;;;;5073078;28;20037;-67
2022/10/13 04:56:24;;;;;;;27.00;15.88;;;;;;;;;;5073576;28;20075;-67
2022/10/13 04:58:52;;;;;;;28.58;16.70;;;;;;;;;;5055952;28;20119;-67
2022/10/13 05:01:22;;;;;;;23.92;14.90;;;;;;;;;;5073604;28;20505;-67
2022/10/13 05:03:53;;;;;;;26.67;15.82;;;;;;;;;;5073453;28;20040;-67
2022/10/13 05:06:22;;;;;;;26.70;13.50;;;;;;;;;;5073417;28;20044;-67
2022/10/13 05:08:54;;;;;;;19.50;13.05;;;;;;;;;;5076486;28;20070;-67
2022/10/13 05:11:23;;;;;;;23.10;13.55;;;;;;;;;;5093870;28;20253;-68
2022/10/13 05:13:50;;;;;;;27.05;14.63;;;;;;;;;;5093547;28;20036;-66
2022/10/13 05:16:19;;;;;;;29.10;16.77;;;;;;;;;;5093709;28;20127;-66
2022/10/13 05:18:47;;;;;;;31.15;15.48;;;;;;;;;;5093360;28;20048;-66
2022/10/13 05:21:19;;;;;;;25.10;14.32;;;;;;;;;;5093456;28;20371;-66
2022/10/13 05:23:47;;;;;;;24.50;13.50;;;;;;;;;;5093461;28;20036;-67
2022/10/13 05:26:16;;;;;;;30.40;15.55;;;;;;;;;;5093409;28;20120;-66
2022/10/13 05:28:44;;;;;;;29.95;15.77;;;;;;;;;;5093357;28;20500;-68
2022/10/13 05:31:12;;;;;;;32.83;16.80;;;;;;;;;;5093289;28;20081;-68
2022/10/13 05:33:39;;;;;;;27.88;14.70;;;;;;;;;;5093429;28;20105;-66
2022/10/13 05:36:07;;;;;;;25.98;15.27;;;;;;;;;;5093217;28;20079;-67
2022/10/13 05:38:37;;;;;;;26.10;15.80;;;;;;;;;;5093231;28;20050;-68
2022/10/13 05:41:05;;;;;;;23.63;14.80;;;;;;;;;;5093302;28;20040;-67
2022/10/13 05:43:33;;;;;;;32.13;16.92;;;;;;;;;;5093150;28;20078;-67
2022/10/13 05:46:00;;;;;;;29.65;18.05;;;;;;;;;;5074696;28;20101;-67
2022/10/13 05:48:29;;;;;;;25.40;15.52;;;;;;;;;;5081027;28;20036;-67
2022/10/13 05:50:57;;;;;;;32.75;17.60;;;;;;;;;;5064035;28;20143;-67
2022/10/13 05:53:25;;;;;;;22.13;14.80;;;;;;;;;;5077786;28;20048;-67
2022/10/13 05:55:54;;;;;;;25.70;16.60;;;;;;;;;;5072665;28;20072;-67
2022/10/13 05:58:22;;;;;;;18.80;13.10;;;;;;;;;;5072593;28;20051;-68
2022/10/13 06:00:49;;;;;;;18.45;13.15;;;;;;;;;;5072370;28;20128;-66
2022/10/13 06:03:18;;;;;;;24.33;15.43;;;;;;;;;;5072452;28;20037;-67
2022/10/13 06:05:46;;;;;;;29.23;16.60;;;;;;;;;;5072609;28;20041;-68
2022/10/13 06:08:14;;;;;;;21.50;14.80;;;;;;;;;;5072498;28;20071;-68
2022/10/13 06:10:44;;;;;;;28.23;14.88;;;;;;;;;;5072670;28;20045;-68
2022/10/13 06:13:11;;;;;;;24.58;15.82;;;;;;;;;;5054624;28;20076;-68
2022/10/13 06:15:39;;;;;;;22.17;13.23;;;;;;;;;;5071986;28;20079;-67
2022/10/13 06:18:10;;;;;;;33.45;19.95;;;;;;;;;;5072473;28;20060;-67
2022/10/13 06:20:38;;;;;;;34.17;17.88;;;;;;;;;;5072313;28;20037;-67
2022/10/13 06:23:05;;;;;;;22.42;17.23;;;;;;;;;;5072532;28;20087;-66
2022/10/13 06:25:33;;;;;;;36.13;20.35;;;;;;;;;;5072366;28;20049;-66
2022/10/13 06:28:00;;;;;;;23.48;14.15;;;;;;;;;;5072278;28;20036;-66
2022/10/13 06:30:28;;;;;;;23.00;13.50;;;;;;;;;;5072370;28;20051;-66
2022/10/13 06:32:55;;;;;;;17.80;13.15;;;;;;;;;;5072524;28;20461;-66
2022/10/13 06:35:22;;;;;;;17.60;12.40;;;;;;;;;;5054506;28;20049;-67
2022/10/13 06:37:51;;;;;;;21.30;14.38;;;;;;;;;;5072326;28;20044;-67
2022/10/13 06:40:19;;;;;;;19.35;13.43;;;;;;;;;;5072288;28;20044;-67
2022/10/13 06:42:50;;;;;;;25.40;15.48;;;;;;;;;;5072298;28;20078;-67
2022/10/13 06:45:21;;;;;;;33.72;18.98;;;;;;;;;;5054311;28;20048;-67
2022/10/13 06:47:48;;;;;;;37.10;22.13;;;;;;;;;;5072145;28;20049;-67
2022/10/13 06:50:16;;;;;;;33.25;20.95;;;;;;;;;;5072089;28;20036;-67
2022/10/13 06:52:43;;;;;;;31.27;21.08;;;;;;;;;;5072091;28;20048;-67
2022/10/13 06:55:11;;;;;;;16.52;11.07;;;;;;;;;;5072210;28;20119;-67
2022/10/13 06:57:38;;;;;;;16.55;11.00;;;;;;;;;;5054724;28;20056;-67
2022/10/13 07:00:08;;;;;;;27.23;17.10;;;;;;;;;;5072245;28;20044;-68
2022/10/13 07:02:36;;;;;;;25.70;14.35;;;;;;;;;;5072278;28;20492;-67
2022/10/13 07:05:04;;;;;;;51.30;31.65;;;;;;;;;;5072057;28;20046;-67
2022/10/13 07:07:32;;;;;;;15.88;11.82;;;;;;;;;;5071942;28;20063;-67
2022/10/13 07:09:59;;;;;;;24.98;12.15;;;;;;;;;;5074496;28;20447;-67
2022/10/13 07:12:26;;;;;;;17.70;12.15;;;;;;;;;;5075690;28;20091;-67
2022/10/13 07:14:54;;;;;;;16.42;11.02;;;;;;;;;;5075914;28;20041;-67
2022/10/13 07:17:21;;;;;;;15.73;10.63;;;;;;;;;;5075474;28;20091;-66
2022/10/13 07:19:49;;;;;;;20.45;11.45;;;;;;;;;;5075433;28;20078;-66
2022/10/13 07:22:19;;;;;;;43.70;25.33;;;;;;;;;;5075289;28;20044;-67
2022/10/13 07:24:46;;;;;;;16.92;10.98;;;;;;;;;;5075557;28;20116;-66
2022/10/13 07:27:13;;;;;;;19.08;9.95;;;;;;;;;;5075515;28;20060;-66
2022/10/13 07:29:41;;;;;;;19.42;9.50;;;;;;;;;;5075386;28;20074;-68
2022/10/13 07:32:08;;;;;;;14.57;9.50;;;;;;;;;;5057268;28;20547;-68
2022/10/13 07:34:36;;;;;;;19.85;10.32;;;;;;;;;;5075542;28;20390;-68
2022/10/13 07:37:03;;;;;;;15.23;10.00;;;;;;;;;;5075261;28;20540;-68
2022/10/13 07:39:31;;;;;;;64.78;28.88;;;;;;;;;;5075220;28;20041;-68
2022/10/13 07:41:59;;;;;;;20.90;13.23;;;;;;;;;;5075468;28;20083;-68
2022/10/13 07:44:27;;;;;;;24.55;12.18;;;;;;;;;;5075089;28;20501;-66
2022/10/13 07:46:55;;;;;;;24.70;13.35;;;;;;;;;;5075075;28;20123;-66
2022/10/13 07:49:22;;;;;;;18.98;10.40;;;;;;;;;;5074975;28;20041;-66
2022/10/13 07:51:50;;;;;;;16.38;9.02;;;;;;;;;;5074884;28;20080;-67
2022/10/13 07:54:18;;;;;;;13.35;7.90;;;;;;;;;;5074967;28;20032;-67
2022/10/13 07:56:53;;;;;;;24.48;14.77;;;;;;;;;;5074847;28;20044;-67
2022/10/13 07:59:20;;;;;;;12.57;9.15;;;;;;;;;;5074857;28;20490;-67
2022/10/13 08:01:48;;;;;;;22.60;12.43;;;;;;;;;;5074897;28;20301;-67
2022/10/13 08:04:15;;;;;;;12.38;7.85;;;;;;;;;;5074751;28;20509;-67
2022/10/13 08:06:43;;;;;;;14.63;8.00;;;;;;;;;;5074794;28;20071;-67
2022/10/13 08:09:13;;;;;;;12.98;8.18;;;;;;;;;;5057171;28;20044;-67
2022/10/13 08:11:40;;;;;;;17.30;7.88;;;;;;;;;;5056783;28;20146;-67
2022/10/13 08:14:07;;;;;;;13.93;7.43;;;;;;;;;;5074646;28;20072;-67
2022/10/13 08:16:37;;;;;;;12.90;7.32;;;;;;;;;;5074541;28;20037;-67
2022/10/13 08:19:04;;;;;;;16.23;7.22;;;;;;;;;;5056679;28;20136;-67
2022/10/13 08:21:32;;;;;;;12.85;7.32;;;;;;;;;;5074256;28;20102;-67
2022/10/13 08:24:21;;;;;;;11.50;6.70;;;;;;;;;;5056523;28;20044;-67
2022/10/13 08:26:49;;;;;;;11.57;7.72;;;;;;;;;;5056649;28;20048;-67
2022/10/13 08:29:17;;;;;;;10.85;6.80;;;;;;;;;;5074669;28;20044;-67
2022/10/13 08:31:53;;;;;;;9.57;7.03;;;;;;;;;;5074142;28;20032;-68
2022/10/13 08:34:21;;;;;;;18.98;6.90;;;;;;;;;;5074193;28;20040;-67
2022/10/13 08:36:51;;;;;;;15.77;8.35;;;;;;;;;;5074207;28;20071;-67
2022/10/13 08:39:21;;;;;;;13.10;6.28;;;;;;;;;;5074395;28;20044;-68
2022/10/13 08:41:48;;;;;;;11.98;6.22;;;;;;;;;;5074108;28;20044;-67
2022/10/13 08:44:21;;;;;;;11.27;6.47;;;;;;;;;;5074096;28;20056;-67
2022/10/13 08:47:09;;;;;;;12.00;6.35;;;;;;;;;;5059071;28;20041;-68
2022/10/13 08:49:36;;;;;;;12.60;6.28;;;;;;;;;;5074154;28;20457;-67
2022/10/13 08:52:13;;;;;;;10.85;4.72;;;;;;;;;;5073714;28;20501;-67
2022/10/13 08:54:40;;;;;;;10.52;5.38;;;;;;;;;;5073843;28;20029;-67
2022/10/13 08:57:08;;;;;;;13.55;5.88;;;;;;;;;;5073687;28;20518;-67
2022/10/13 08:59:36;;;;;;;12.80;6.30;;;;;;;;;;5073609;28;20044;-67
2022/10/13 09:02:10;;;;;;;10.80;5.65;;;;;;;;;;5073510;28;20136;-67
2022/10/13 09:04:40;;;;;;;9.43;4.70;;;;;;;;;;5073508;28;20442;-67
2022/10/13 09:07:17;;;;;;;8.38;5.40;;;;;;;;;;5073414;28;20066;-67
2022/10/13 09:09:49;;;;;;;17.88;9.90;;;;;;;;;;5073865;28;20596;-66
2022/10/13 09:12:22;;;;;;;11.98;4.70;;;;;;;;;;5073327;28;20045;-66
2022/10/13 09:15:17;;;;;;;6.63;4.22;;;;;;;;;;5073410;28;20440;-67
2022/10/13 09:17:45;;;;;;;13.93;4.93;;;;;;;;;;5070607;28;20052;-67
2022/10/13 09:20:24;;;;;;;10.20;4.80;;;;;;;;;;5073299;28;20454;-67
2022/10/13 09:23:15;;;;;;;10.00;4.10;;;;;;;;;;5073418;28;20048;-68
2022/10/13 09:25:51;;;;;;;8.88;5.50;;;;;;;;;;5073183;28;20116;-67
2022/10/13 09:28:21;;;;;;;7.40;3.50;;;;;;;;;;5073151;28;20051;-66
2022/10/13 09:30:59;;;;;;;10.05;4.22;;;;;;;;;;5055416;28;20063;-67
2022/10/13 09:33:27;;;;;;;13.00;6.07;;;;;;;;;;5072714;28;20504;-66
2022/10/13 09:36:05;;;;;;;11.35;3.78;;;;;;;;;;5073146;28;20447;-66
2022/10/13 09:38:33;;;;;;;6.93;3.88;;;;;;;;;;5072945;28;20040;-67
2022/10/13 09:41:06;;;;;;;10.07;4.20;;;;;;;;;;5072994;28;20405;-67
2022/10/13 09:43:34;;;;;;;6.85;4.25;;;;;;;;;;5073059;28;20056;-67
2022/10/13 09:46:04;;;;;;;9.05;4.30;;;;;;;;;;5072885;28;20045;-67
2022/10/13 09:48:34;;;;;;;9.48;4.05;;;;;;;;;;5073088;28;20045;-67
2022/10/13 09:51:02;;;;;;;6.55;3.50;;;;;;;;;;5072684;28;20086;-68
2022/10/13 09:53:30;;;;;;;7.15;3.70;;;;;;;;;;5072609;28;20040;-67
2022/10/13 09:56:10;;;;;;;5.88;3.53;;;;;;;;;;5072653;28;20043;-67
2022/10/13 09:58:40;;;;;;;10.80;4.15;;;;;;;;;;5072690;28;20482;-67
2022/10/13 10:01:16;;;;;;;8.45;4.13;;;;;;;;;;5072640;28;20094;-67
2022/10/13 10:03:43;;;;;;;8.93;3.50;;;;;;;;;;5072716;28;20068;-67
2022/10/13 10:06:12;;;;;;;8.68;3.63;;;;;;;;;;5072857;28;20064;-67
2022/10/13 10:08:58;;;;;;;5.68;3.33;;;;;;;;;;5072600;28;20051;-67
2022/10/13 10:11:34;;;;;;;10.48;3.90;;;;;;;;;;5072920;28;20041;-67
2022/10/13 10:14:12;;;;;;;7.22;3.47;;;;;;;;;;5072812;28;20040;-67
2022/10/13 10:16:42;;;;;;;11.07;4.13;;;;;;;;;;5072587;28;20041;-67
2022/10/13 10:19:14;;;;;;;12.02;3.75;;;;;;;;;;5072367;28;20060;-67
2022/10/13 10:21:54;;;;;;;6.63;3.88;;;;;;;;;;5072487;28;20111;-66
2022/10/13 10:24:27;;;;;;;8.82;3.50;;;;;;;;;;5072391;28;20094;-66
2022/10/13 10:26:55;;;;;;;10.68;3.90;;;;;;;;;;5072477;28;20110;-66
2022/10/13 10:29:29;;;;;;;8.55;3.78;;;;;;;;;;5072467;28;20489;-66
2022/10/13 10:32:15;;;;;;;7.72;4.45;;;;;;;;;;5054360;28;20047;-67
2022/10/13 10:34:48;;;;;;;10.48;5.20;;;;;;;;;;5054711;28;20055;-66
2022/10/13 10:37:18;;;;;;;9.77;4.32;;;;;;;;;;5072395;28;20474;-67
2022/10/13 10:40:11;;;;;;;15.32;8.07;;;;;;;;;;5054616;28;20437;-66
2022/10/13 10:42:45;;;;;;;7.30;4.80;;;;;;;;;;5072937;28;20050;-67
2022/10/13 10:45:20;;;;;;;6.78;4.20;;;;;;;;;;5076575;28;20044;-67
2022/10/13 10:47:50;;;;;;;7.85;3.72;;;;;;;;;;5058105;28;20053;-67
2022/10/13 10:50:19;;;;;;;8.05;3.22;;;;;;;;;;5076181;28;20128;-67
2022/10/13 10:53:06;;;;;;;8.93;3.88;;;;;;;;;;5075999;28;20068;-67
2022/10/13 10:55:37;;;;;;;7.47;3.40;;;;;;;;;;5076012;28;20048;-67
2022/10/13 10:58:31;;;;;;;5.13;3.30;;;;;;;;;;5076058;28;20040;-67
2022/10/13 11:01:06;;;;;;;9.38;3.33;;;;;;;;;;5073576;28;20058;-67
2022/10/13 11:03:54;;;;;;;7.45;2.97;;;;;;;;;;5075991;28;20066;-67
2022/10/13 11:06:24;;;;;;;6.07;3.00;;;;;;;;;;5076060;28;20102;-68
2022/10/13 11:08:54;;;;;;;11.10;3.17;;;;;;;;;;5075826;28;20098;-67
2022/10/13 11:11:24;;;;;;;7.55;3.17;;;;;;;;;;5075686;28;20040;-66
2022/10/13 11:13:56;;;;;;;;;;;;;;;;;;5076099;28;20045;-67
2022/10/13 11:16:23;;;;;;;5.20;2.70;;;;;;;;;;5075829;28;19978;-67
2022/10/13 11:18:54;;;;;;;6.57;3.10;;;;;;;;;;5057468;28;20492;-67
2022/10/13 11:21:25;;;;;;;6.53;2.90;;;;;;;;;;5075574;28;20111;-67
2022/10/13 11:23:52;;;;;;;7.68;3.40;;;;;;;;;;5075538;28;20113;-67
2022/10/13 11:26:27;;;;;;;4.75;2.90;;;;;;;;;;5075473;28;20041;-67
2022/10/13 11:28:55;;;;;;;8.20;3.10;;;;;;;;;;5075386;28;20041;-67
2022/10/13 11:31:23;;;;;;;4.78;3.10;;;;;;;;;;5075682;28;20063;-67
2022/10/13 11:33:52;;;;;;;8.30;3.20;;;;;;;;;;5040886;28;20059;-67
2022/10/13 11:36:30;;;;;;;5.72;3.17;;;;;;;;;;5058122;28;20059;-67
2022/10/13 11:38:57;;;;;;;;;;;;;;;;;;5075620;28;20047;-67
2022/10/13 11:41:27;;;;;;;4.85;2.55;;;;;;;;;;5075051;28;19920;-67
2022/10/13 11:44:04;;;;;;;4.85;3.00;;;;;;;;;;5075152;28;20037;-67
2022/10/13 11:46:31;;;;;;;7.18;3.20;;;;;;;;;;5075131;28;20040;-67
2022/10/13 11:49:08;;;;;;;8.00;3.22;;;;;;;;;;5075002;28;20226;-68
2022/10/13 11:51:43;;;;;;;5.82;2.88;;;;;;;;;;5075088;28;20036;-67
2022/10/13 11:54:26;;;;;;;6.88;2.88;;;;;;;;;;5074787;28;20059;-67
2022/10/13 11:56:55;;;;;;;7.35;2.60;;;;;;;;;;5074250;28;20051;-67
2022/10/13 11:59:28;;;;;;;8.57;2.80;;;;;;;;;;5074552;28;20033;-67
2022/10/13 12:01:57;;;;;;;7.25;3.08;;;;;;;;;;5074650;28;20410;-68
2022/10/13 12:04:25;;;;;;;6.07;2.90;;;;;;;;;;5074538;28;20124;-67
2022/10/13 12:07:00;;;;;;;7.15;2.90;;;;;;;;;;5076851;28;20032;-68
2022/10/13 12:09:30;;;;;;;9.45;3.17;;;;;;;;;;5074752;28;20075;-67
2022/10/13 12:11:59;;;;;;;5.57;3.15;;;;;;;;;;5074551;28;20047;-67
2022/10/13 12:14:42;;;;;;;6.97;2.63;;;;;;;;;;5074511;28;20480;-67
2022/10/13 12:17:18;;;;;;;7.05;3.08;;;;;;;;;;5074397;28;20064;-67
2022/10/13 12:19:52;;;;;;;4.22;2.30;;;;;;;;;;5074530;28;20048;-67
2022/10/13 12:22:19;;;;;;;4.85;2.60;;;;;;;;;;5074509;28;20072;-67
2022/10/13 12:24:58;;;;;;;10.55;3.00;;;;;;;;;;5057023;28;20048;-67
2022/10/13 12:27:26;;;;;;;3.42;2.50;;;;;;;;;;5074428;28;20398;-67
2022/10/13 12:29:54;;;;;;;6.60;3.40;;;;;;;;;;5074421;28;20119;-67
2022/10/13 12:32:23;;;;;;;5.20;2.47;;;;;;;;;;5074175;28;20052;-67
2022/10/13 12:34:51;;;;;;;5.20;2.38;;;;;;;;;;5074493;28;20454;-67
2022/10/13 12:37:26;;;;;;;4.90;2.42;;;;;;;;;;5074104;28;20044;-67
2022/10/13 12:39:55;;;;;;;4.57;2.50;;;;;;;;;;5074118;28;20048;-67
2022/10/13 12:42:42;;;;;;;4.30;2.35;;;;;;;;;;5056101;28;20040;-67
2022/10/13 12:45:17;;;;;;;4.40;2.00;;;;;;;;;;5056398;28;20045;-67
2022/10/13 12:47:46;;;;;;;3.75;2.25;;;;;;;;;;5073987;28;20044;-67
2022/10/13 12:50:28;;;;;;;4.63;2.30;;;;;;;;;;5073926;28;20119;-67
2022/10/13 12:52:55;;;;;;;4.93;2.20;;;;;;;;;;5074051;28;20105;-67
2022/10/13 12:55:23;;;;;;;3.58;2.05;;;;;;;;;;5073762;28;20536;-67
2022/10/13 12:57:51;;;;;;;4.75;1.88;;;;;;;;;;5073734;28;20041;-67
2022/10/13 13:00:18;;;;;;;7.25;2.50;;;;;;;;;;5073703;28;20040;-67
2022/10/13 13:02:55;;;;;;;4.75;2.20;;;;;;;;;;5073618;28;20059;-67
2022/10/13 13:05:39;;;;;;;4.85;2.00;;;;;;;;;;5073531;28;20123;-67
2022/10/13 13:08:22;;;;;;;4.80;2.00;;;;;;;;;;5072854;28;20461;-67
2022/10/13 13:11:03;;;;;;;5.13;2.22;;;;;;;;;;5073478;28;20296;-67
2022/10/13 13:13:31;;;;;;;5.15;2.13;;;;;;;;;;5073304;28;20083;-67
2022/10/13 13:16:14;;;;;;;5.25;1.88;;;;;;;;;;5073247;28;20075;-68
2022/10/13 13:18:43;;;;;;;8.50;2.33;;;;;;;;;;5073285;28;20056;-67
2022/10/13 13:21:18;;;;;;;5.03;2.42;;;;;;;;;;5055275;28;20092;-67
2022/10/13 13:23:47;;;;;;;5.63;2.90;;;;;;;;;;5073209;28;20135;-68
2022/10/13 13:26:21;;;;;;;5.35;3.10;;;;;;;;;;5073081;28;20497;-67
2022/10/13 13:28:53;;;;;;;10.32;3.65;;;;;;;;;;5073143;28;20062;-67
2022/10/13 13:31:22;;;;;;;6.45;2.35;;;;;;;;;;5073098;28;20071;-67
2022/10/13 13:33:50;;;;;;;5.20;2.50;;;;;;;;;;5072919;28;20478;-67
2022/10/13 13:36:19;;;;;;;4.95;2.20;;;;;;;;;;5073096;28;20103;-67
2022/10/13 13:38:51;;;;;;;4.57;2.00;;;;;;;;;;5072984;28;20115;-67
2022/10/13 13:41:18;;;;;;;4.50;2.15;;;;;;;;;;5072852;28;20097;-67
2022/10/13 13:43:46;;;;;;;8.05;3.40;;;;;;;;;;5072701;28;20112;-67
2022/10/13 13:46:17;;;;;;;7.03;3.90;;;;;;;;;;5071648;28;20059;-67
2022/10/13 13:48:45;;;;;;;7.20;3.72;;;;;;;;;;5072842;28;20441;-67
2022/10/13 13:51:12;;;;;;;6.22;3.40;;;;;;;;;;5055116;28;20040;-67
2022/10/13 13:53:40;;;;;;;3.80;2.05;;;;;;;;;;5072669;28;20036;-67
2022/10/13 13:56:17;;;;;;;4.43;2.30;;;;;;;;;;5072695;28;20036;-67
2022/10/13 13:58:45;;;;;;;4.85;2.10;;;;;;;;;;5072876;28;20045;-67
2022/10/13 14:01:12;;;;;;;5.80;1.92;;;;;;;;;;5071161;28;20066;-67
2022/10/13 14:03:40;;;;;;;7.38;2.25;;;;;;;;;;5071626;28;20087;-67
2022/10/13 14:06:08;;;;;;;5.22;2.17;;;;;;;;;;5079101;28;20045;-67
2022/10/13 14:08:40;;;;;;;4.50;2.00;;;;;;;;;;5072567;28;20143;-67
2022/10/13 14:11:09;;;;;;;5.55;2.05;;;;;;;;;;5072676;28;20045;-67
2022/10/13 14:13:37;;;;;;;5.43;2.40;;;;;;;;;;5072369;28;20120;-67
2022/10/13 14:16:04;;;;;;;3.28;2.20;;;;;;;;;;5072713;28;20492;-67
2022/10/13 14:18:32;;;;;;;5.10;2.53;;;;;;;;;;5072130;28;20105;-67
2022/10/13 14:20:59;;;;;;;3.72;2.55;;;;;;;;;;5072527;28;20108;-67
2022/10/13 14:23:27;;;;;;;4.82;3.05;;;;;;;;;;5072521;28;20467;-67
2022/10/13 14:25:54;;;;;;;7.07;2.25;;;;;;;;;;5072376;28;20071;-67
2022/10/13 14:28:23;;;;;;;3.63;1.95;;;;;;;;;;5054878;28;20508;-67
2022/10/13 14:30:51;;;;;;;4.13;2.08;;;;;;;;;;5072187;28;20032;-68
2022/10/13 14:33:19;;;;;;;5.95;3.15;;;;;;;;;;5072387;28;20047;-68
2022/10/13 14:35:46;;;;;;;8.45;3.85;;;;;;;;;;5072202;28;20044;-68
2022/10/13 14:38:15;;;;;;;6.60;3.60;;;;;;;;;;5072298;28;20437;-68
2022/10/13 14:40:43;;;;;;;5.25;3.60;;;;;;;;;;5069265;28;20073;-68
2022/10/13 14:43:11;;;;;;;9.40;4.40;;;;;;;;;;5065474;28;20056;-68
2022/10/13 14:45:38;;;;;;;6.07;3.58;;;;;;;;;;5068234;28;20119;-68
2022/10/13 14:48:10;;;;;;;8.30;5.05;;;;;;;;;;5071813;28;20437;-68
2022/10/13 14:50:38;;;;;;;9.38;4.20;;;;;;;;;;5059403;28;20041;-68